createdAt,value
2023-03-14T00:02:21.311Z,0.30
2023-03-14T00:04:50.685Z,0.30
2023-03-14T00:07:19.309Z,0.13
2023-03-14T00:09:47.903Z,0.20
2023-03-14T00:12:18.075Z,9.10
2023-03-14T00:14:46.576Z,0.40
2023-03-14T00:17:15.099Z,0.53
2023-03-14T00:19:43.808Z,0.20
2023-03-14T00:22:12.349Z,0.30
2023-03-14T00:24:40.837Z,0.30
2023-03-14T00:27:09.335Z,0.20
2023-03-14T00:29:39.255Z,0.27
2023-03-14T00:32:07.756Z,0.20
2023-03-14T00:34:36.397Z,0.40
2023-03-14T00:37:04.859Z,0.10
2023-03-14T00:39:33.375Z,0.20
2023-03-14T00:42:02.014Z,0.23
2023-03-14T00:44:30.519Z,0.30
2023-03-14T00:47:00.697Z,0.20
2023-03-14T00:49:29.578Z,0.30
2023-03-14T00:51:58.082Z,0.43
2023-03-14T00:54:26.586Z,0.30
2023-03-14T00:56:55.096Z,0.30
2023-03-14T00:59:23.737Z,0.20
2023-03-14T01:01:52.283Z,0.30
2023-03-14T01:04:22.239Z,0.20
2023-03-14T01:06:50.774Z,0.10
2023-03-14T01:09:19.756Z,0.30
2023-03-14T01:11:48.270Z,0.20
2023-03-14T01:14:16.905Z,0.10
2023-03-14T01:16:45.439Z,0.83
2023-03-14T01:19:14.078Z,0.27
2023-03-14T01:21:43.993Z,0.13
2023-03-14T01:24:13.845Z,0.20
2023-03-14T01:26:42.338Z,0.43
2023-03-14T01:29:10.877Z,0.10
2023-03-14T01:31:39.514Z,0.40
2023-03-14T01:34:08.090Z,0.40
2023-03-14T01:36:36.804Z,0.10
2023-03-14T01:39:08.251Z,0.30
2023-03-14T01:41:36.808Z,0.20
2023-03-14T01:44:05.426Z,0.20
2023-03-14T01:46:39.110Z,0.10
2023-03-14T01:49:28.533Z,0.10
2023-03-14T01:52:01.497Z,0.20
2023-03-14T01:54:36.461Z,0.20
2023-03-14T01:57:10.703Z,0.20
2023-03-14T01:59:41.614Z,0.20
2023-03-14T02:02:14.534Z,0.23
2023-03-14T02:04:43.646Z,0.20
2023-03-14T02:07:17.498Z,0.20
2023-03-14T02:09:48.303Z,0.10
2023-03-14T02:12:20.173Z,0.20
2023-03-14T02:14:49.361Z,0.10
2023-03-14T02:17:19.876Z,0.20
2023-03-14T02:20:10.771Z,0.43
2023-03-14T02:22:42.494Z,0.20
2023-03-14T02:25:18.599Z,0.20
2023-03-14T02:27:50.320Z,0.20
2023-03-14T02:30:23.749Z,0.20
2023-03-14T02:32:56.514Z,0.20
2023-03-14T02:35:27.379Z,0.10
2023-03-14T02:38:02.538Z,0.10
2023-03-14T02:40:31.064Z,0.20
2023-03-14T02:43:01.422Z,0.20
2023-03-14T02:45:42.339Z,0.20
2023-03-14T02:48:16.648Z,2.20
2023-03-14T02:50:47.635Z,0.10
2023-03-14T02:53:21.256Z,0.30
2023-03-14T02:55:50.438Z,0.20
2023-03-14T02:58:21.111Z,0.10
2023-03-14T03:00:50.146Z,0.20
2023-03-14T03:03:19.237Z,0.20
2023-03-14T03:05:52.402Z,0.20
2023-03-14T03:08:21.685Z,0.40
2023-03-14T03:10:50.617Z,0.20
2023-03-14T03:13:20.626Z,0.20
2023-03-14T03:15:49.353Z,0.10
2023-03-14T03:18:18.213Z,0.20
2023-03-14T03:20:46.734Z,0.20
2023-03-14T03:23:15.659Z,0.30
2023-03-14T03:25:44.377Z,0.20
2023-03-14T03:28:12.913Z,0.20
2023-03-14T03:30:44.126Z,0.60
2023-03-14T03:33:13.224Z,0.37
2023-03-14T03:35:46.492Z,0.30
2023-03-14T03:38:15.752Z,0.10
2023-03-14T03:40:44.799Z,0.20
2023-03-14T03:43:13.524Z,1.70
2023-03-14T03:45:43.446Z,0.20
2023-03-14T03:48:12.142Z,0.30
2023-03-14T03:50:47.299Z,0.20
2023-03-14T03:53:26.812Z,0.20
2023-03-14T03:55:59.249Z,0.20
2023-03-14T03:58:27.745Z,0.20
2023-03-14T04:00:57.670Z,0.33
2023-03-14T04:03:26.888Z,0.23
2023-03-14T04:06:01.484Z,0.10
2023-03-14T04:08:30.393Z,0.27
2023-03-14T04:10:59.885Z,0.23
2023-03-14T04:13:29.529Z,0.33
2023-03-14T04:15:59.476Z,0.30
2023-03-14T04:18:31.169Z,0.30
2023-03-14T04:21:00.401Z,0.30
2023-03-14T04:23:29.086Z,0.20
2023-03-14T04:25:57.642Z,0.20
2023-03-14T04:28:26.291Z,0.40
2023-03-14T04:30:54.795Z,0.17
2023-03-14T04:33:25.391Z,0.20
2023-03-14T04:35:56.686Z,0.27
2023-03-14T04:38:25.226Z,0.20
2023-03-14T04:40:53.811Z,0.10
2023-03-14T04:43:22.440Z,0.30
2023-03-14T04:45:51.038Z,0.20
2023-03-14T04:48:19.545Z,0.57
2023-03-14T04:50:50.457Z,0.50
2023-03-14T04:53:20.072Z,0.20
2023-03-14T04:55:51.560Z,0.30
2023-03-14T04:58:20.187Z,0.20
2023-03-14T05:00:49.239Z,0.20
2023-03-14T05:03:18.196Z,0.47
2023-03-14T05:05:47.183Z,0.30
2023-03-14T05:08:17.078Z,0.20
2023-03-14T05:10:45.518Z,0.20
2023-03-14T05:13:14.012Z,0.20
2023-03-14T05:15:42.581Z,0.30
2023-03-14T05:18:11.147Z,0.20
2023-03-14T05:20:39.662Z,0.20
2023-03-14T05:23:08.193Z,0.20
2023-03-14T05:25:38.110Z,0.20
2023-03-14T05:28:06.812Z,0.23
2023-03-14T05:30:35.431Z,0.33
2023-03-14T05:33:03.948Z,0.20
2023-03-14T05:35:32.634Z,0.20
2023-03-14T05:38:01.219Z,0.27
2023-03-14T05:40:29.747Z,0.30
2023-03-14T05:42:59.680Z,0.20
2023-03-14T05:45:28.300Z,0.20
2023-03-14T05:47:56.877Z,0.10
2023-03-14T05:50:25.323Z,0.20
2023-03-14T05:52:53.790Z,0.23
2023-03-14T05:55:22.328Z,0.90
2023-03-14T05:57:50.845Z,0.40
2023-03-14T06:00:22.095Z,0.60
2023-03-14T06:02:50.759Z,0.27
2023-03-14T06:05:19.557Z,1.00
2023-03-14T06:07:48.117Z,1.50
2023-03-14T06:10:16.895Z,1.83
2023-03-14T06:12:45.463Z,3.60
2023-03-14T06:15:14.358Z,3.60
2023-03-14T06:17:44.561Z,3.23
2023-03-14T06:20:14.307Z,3.17
2023-03-14T06:22:43.091Z,5.20
2023-03-14T06:25:12.041Z,7.10
2023-03-14T06:27:40.666Z,15.97
2023-03-14T06:30:10.772Z,12.07
2023-03-14T06:32:39.393Z,11.80
2023-03-14T06:35:10.243Z,2.77
2023-03-14T06:37:38.788Z,9.23
2023-03-14T06:40:08.764Z,5.37
2023-03-14T06:42:37.504Z,6.30
2023-03-14T06:45:06.970Z,4.33
2023-03-14T06:47:35.395Z,14.40
2023-03-14T06:50:04.079Z,13.23
2023-03-14T06:52:33.957Z,9.83
2023-03-14T06:55:02.689Z,9.53
2023-03-14T06:57:31.392Z,4.33
2023-03-14T06:59:59.881Z,3.13
2023-03-14T07:02:41.875Z,2.90
2023-03-14T07:05:12.402Z,2.10
2023-03-14T07:07:42.346Z,0.50
2023-03-14T07:10:12.211Z,0.43
2023-03-14T07:12:40.798Z,0.83
2023-03-14T07:15:18.085Z,0.50
2023-03-14T07:17:48.899Z,0.33
2023-03-14T07:20:18.082Z,0.20
2023-03-14T07:22:50.432Z,0.30
2023-03-14T07:25:20.036Z,2.07
2023-03-14T07:27:49.427Z,0.80
2023-03-14T07:30:18.333Z,0.30
2023-03-14T07:32:46.921Z,0.20
2023-03-14T07:35:15.517Z,0.30
2023-03-14T07:37:43.956Z,0.30
2023-03-14T07:40:16.067Z,0.73
2023-03-14T07:42:44.817Z,4.33
2023-03-14T07:45:13.746Z,0.57
2023-03-14T07:47:42.260Z,0.53
2023-03-14T07:50:12.120Z,0.37
2023-03-14T07:52:40.647Z,0.47
2023-03-14T07:55:10.190Z,1.47
2023-03-14T07:57:40.187Z,0.50
2023-03-14T08:00:11.084Z,0.20
2023-03-14T08:02:39.736Z,2.33
2023-03-14T08:05:09.102Z,0.30
2023-03-14T08:07:37.628Z,0.10
2023-03-14T08:10:07.383Z,0.30
2023-03-14T08:12:35.997Z,0.23
2023-03-14T08:15:06.591Z,0.70
2023-03-14T08:17:35.340Z,0.20
2023-03-14T08:20:07.483Z,0.40
2023-03-14T08:22:36.238Z,0.40
2023-03-14T08:25:05.071Z,0.20
2023-03-14T08:27:33.627Z,2.23
2023-03-14T08:30:02.153Z,0.37
2023-03-14T08:32:32.267Z,4.90
2023-03-14T08:35:00.814Z,0.20
2023-03-14T08:37:29.411Z,0.20
2023-03-14T08:39:57.943Z,0.20
2023-03-14T08:42:26.866Z,0.17
2023-03-14T08:44:55.617Z,0.30
2023-03-14T08:47:24.116Z,0.20
2023-03-14T08:49:54.056Z,0.10
2023-03-14T08:52:22.574Z,0.20
2023-03-14T08:54:51.521Z,0.30
2023-03-14T08:57:19.995Z,0.30
2023-03-14T08:59:48.538Z,0.73
2023-03-14T09:02:17.138Z,0.20
2023-03-14T09:04:45.665Z,0.47
2023-03-14T09:07:15.750Z,0.20
2023-03-14T09:09:44.587Z,0.20
2023-03-14T09:12:13.500Z,0.20
2023-03-14T09:14:42.150Z,0.10
2023-03-14T09:17:10.804Z,0.30
2023-03-14T09:19:39.389Z,0.20
2023-03-14T09:22:07.920Z,0.20
2023-03-14T09:24:37.772Z,0.20
2023-03-14T09:27:06.336Z,0.10
2023-03-14T09:29:35.047Z,0.30
2023-03-14T09:32:04.350Z,0.20
2023-03-14T09:34:32.850Z,0.20
2023-03-14T09:37:02.097Z,0.27
2023-03-14T09:39:30.709Z,0.10
2023-03-14T09:42:04.459Z,2.10
2023-03-14T09:44:34.990Z,0.40
2023-03-14T09:47:07.788Z,0.20
2023-03-14T09:49:39.385Z,0.20
2023-03-14T09:52:15.203Z,0.20
2023-03-14T09:54:48.549Z,0.30
2023-03-14T09:57:20.730Z,0.10
2023-03-14T09:59:52.340Z,0.10
2023-03-14T10:02:23.471Z,0.20
2023-03-14T10:04:53.646Z,0.17
2023-03-14T10:07:30.545Z,0.20
2023-03-14T10:09:59.925Z,0.20
2023-03-14T10:12:36.111Z,0.20
2023-03-14T10:15:08.980Z,0.40
2023-03-14T10:17:43.033Z,0.20
2023-03-14T10:20:34.031Z,0.20
2023-03-14T10:23:04.277Z,0.40
2023-03-14T10:25:34.869Z,0.20
2023-03-14T10:28:05.645Z,0.20
2023-03-14T10:30:45.097Z,0.20
2023-03-14T10:33:23.430Z,0.10
2023-03-14T10:35:57.520Z,0.30
2023-03-14T10:38:28.432Z,0.20
2023-03-14T10:40:59.616Z,0.27
2023-03-14T10:43:34.237Z,0.10
2023-03-14T10:46:08.326Z,1.50
2023-03-14T10:48:38.902Z,0.40
2023-03-14T10:51:11.266Z,0.43
2023-03-14T10:53:44.783Z,0.10
2023-03-14T10:56:17.266Z,0.10
2023-03-14T10:58:49.538Z,0.10
2023-03-14T11:01:35.205Z,0.20
2023-03-14T11:04:13.395Z,0.70
2023-03-14T11:06:46.218Z,0.10
2023-03-14T11:09:23.163Z,1.00
2023-03-14T11:11:51.746Z,0.20
2023-03-14T11:14:30.645Z,0.20
2023-03-14T11:17:06.530Z,0.13
2023-03-14T11:19:51.800Z,0.33
2023-03-14T11:22:35.551Z,0.10
2023-03-14T11:25:17.519Z,0.20
2023-03-14T11:27:50.270Z,0.60
2023-03-14T11:30:27.657Z,0.20
2023-03-14T11:33:04.630Z,0.10
2023-03-14T11:35:36.680Z,0.20
2023-03-14T11:38:15.339Z,0.20
2023-03-14T11:40:45.348Z,0.10
2023-03-14T11:43:20.854Z,0.20
2023-03-14T11:45:53.351Z,0.23
2023-03-14T11:48:36.763Z,0.10
2023-03-14T11:51:10.480Z,0.10
2023-03-14T11:53:55.955Z,0.93
2023-03-14T11:56:31.361Z,0.20
2023-03-14T11:59:04.082Z,0.20
2023-03-14T12:01:48.236Z,0.47
2023-03-14T12:04:23.039Z,0.10
2023-03-14T12:06:52.680Z,0.20
2023-03-14T12:09:23.605Z,0.17
2023-03-14T12:11:57.611Z,0.13
2023-03-14T12:14:29.026Z,0.30
2023-03-14T12:17:01.319Z,0.53
2023-03-14T12:19:42.104Z,0.10
2023-03-14T12:22:30.567Z,0.20
2023-03-14T12:25:04.660Z,0.70
2023-03-14T12:28:14.691Z,0.33
2023-03-14T12:30:44.015Z,0.40
2023-03-14T12:33:37.811Z,1.10
2023-03-14T12:36:42.365Z,0.73
2023-03-14T12:39:22.772Z,0.53
2023-03-14T12:41:54.882Z,0.20
2023-03-14T12:44:46.059Z,0.20
2023-03-14T12:47:55.703Z,0.10
2023-03-14T12:50:33.427Z,0.30
2023-03-14T12:53:36.099Z,0.20
2023-03-14T12:56:13.270Z,0.20
2023-03-14T12:58:46.140Z,0.30
2023-03-14T13:01:20.130Z,0.47
2023-03-14T13:03:54.540Z,0.20
2023-03-14T13:06:54.967Z,0.20
2023-03-14T13:09:52.995Z,0.30
2023-03-14T13:12:30.995Z,0.40
2023-03-14T13:15:01.956Z,0.10
2023-03-14T13:17:36.566Z,0.20
2023-03-14T13:20:14.614Z,0.20
2023-03-14T13:22:49.689Z,0.20
2023-03-14T13:25:21.895Z,0.47
2023-03-14T13:27:50.777Z,0.10
2023-03-14T13:30:23.468Z,0.30
2023-03-14T13:32:53.940Z,0.17
2023-03-14T13:35:25.160Z,0.20
2023-03-14T13:38:11.087Z,0.73
2023-03-14T13:40:41.075Z,0.20
2023-03-14T13:43:19.842Z,0.10
2023-03-14T13:45:54.508Z,0.40
2023-03-14T13:48:25.070Z,0.20
2023-03-14T13:50:56.180Z,0.30
2023-03-14T13:53:26.658Z,0.20
2023-03-14T13:55:55.917Z,0.10
2023-03-14T13:58:30.402Z,0.30
2023-03-14T14:01:05.061Z,0.20
2023-03-14T14:03:37.401Z,0.20
2023-03-14T14:06:10.823Z,0.33
2023-03-14T14:08:44.540Z,0.10
2023-03-14T14:11:20.488Z,0.30
2023-03-14T14:13:49.322Z,0.50
2023-03-14T14:16:22.126Z,0.63
2023-03-14T14:18:51.024Z,0.10
2023-03-14T14:21:19.808Z,0.10
2023-03-14T14:23:50.423Z,0.50
2023-03-14T14:26:20.651Z,0.20
2023-03-14T14:29:00.093Z,0.10
2023-03-14T14:31:28.728Z,0.30
2023-03-14T14:33:59.699Z,0.10
2023-03-14T14:36:32.054Z,0.17
2023-03-14T14:39:06.167Z,0.10
2023-03-14T14:41:37.100Z,0.10
2023-03-14T14:44:07.125Z,0.10
2023-03-14T14:46:40.534Z,0.10
2023-03-14T14:49:15.930Z,0.20
2023-03-14T14:51:46.314Z,0.23
2023-03-14T14:54:19.489Z,0.20
2023-03-14T14:56:51.380Z,0.27
2023-03-14T14:59:26.055Z,0.27
2023-03-14T15:01:59.500Z,0.20
2023-03-14T15:04:29.172Z,0.10
2023-03-14T15:06:59.282Z,0.10
2023-03-14T15:09:30.117Z,0.20
2023-03-14T15:11:58.707Z,0.30
2023-03-14T15:14:27.238Z,0.10
2023-03-14T15:16:55.828Z,0.10
2023-03-14T15:19:27.972Z,0.20
2023-03-14T15:21:56.616Z,0.10
2023-03-14T15:24:25.171Z,0.20
2023-03-14T15:26:55.050Z,0.17
2023-03-14T15:29:23.548Z,0.10
2023-03-14T15:31:52.092Z,0.30
2023-03-14T15:34:20.661Z,0.10
2023-03-14T15:36:49.584Z,0.20
2023-03-14T15:39:18.130Z,0.20
2023-03-14T15:41:46.932Z,0.20
2023-03-14T15:44:16.896Z,0.10
2023-03-14T15:46:45.423Z,0.20
2023-03-14T15:49:13.978Z,0.40
2023-03-14T15:51:42.513Z,0.10
2023-03-14T15:54:11.120Z,0.30
2023-03-14T15:56:40.668Z,0.20
2023-03-14T15:59:09.597Z,0.20
2023-03-14T16:01:39.626Z,0.20
2023-03-14T16:04:08.222Z,0.20
2023-03-14T16:06:37.870Z,0.20
2023-03-14T16:09:06.772Z,0.20
2023-03-14T16:11:35.543Z,0.20
2023-03-14T16:14:04.278Z,0.20
2023-03-14T16:16:32.962Z,0.20
2023-03-14T16:19:03.018Z,0.30
2023-03-14T16:21:31.559Z,0.20
2023-03-14T16:24:00.492Z,0.20
2023-03-14T16:26:28.974Z,0.10
2023-03-14T16:28:57.551Z,0.20
2023-03-14T16:31:26.743Z,0.40
2023-03-14T16:33:55.335Z,0.20
2023-03-14T16:36:25.327Z,0.20
2023-03-14T16:38:54.015Z,0.20
2023-03-14T16:41:23.164Z,0.10
2023-03-14T16:43:54.329Z,0.20
2023-03-14T16:46:25.071Z,0.20
2023-03-14T16:48:54.173Z,0.40
2023-03-14T16:51:28.038Z,0.20
2023-03-14T16:53:56.806Z,0.20
2023-03-14T16:56:26.171Z,0.20
2023-03-14T16:58:54.784Z,0.30
2023-03-14T17:01:23.977Z,0.40
2023-03-14T17:03:53.788Z,0.20
2023-03-14T17:06:26.050Z,0.20
2023-03-14T17:08:55.971Z,0.20
2023-03-14T17:11:25.233Z,0.30
2023-03-14T17:13:53.829Z,0.30
2023-03-14T17:16:24.357Z,0.20
2023-03-14T17:18:53.566Z,0.43
2023-03-14T17:21:23.986Z,0.30
2023-03-14T17:23:53.002Z,0.40
2023-03-14T17:26:21.708Z,0.30
2023-03-14T17:28:50.250Z,0.40
2023-03-14T17:31:20.668Z,0.30
2023-03-14T17:33:51.757Z,0.50
2023-03-14T17:36:21.413Z,0.40
2023-03-14T17:38:53.298Z,0.40
2023-03-14T17:41:22.169Z,0.47
2023-03-14T17:43:50.960Z,0.40
2023-03-14T17:46:19.574Z,0.40
2023-03-14T17:48:49.710Z,0.60
2023-03-14T17:51:18.531Z,0.40
2023-03-14T17:53:47.202Z,0.40
2023-03-14T17:56:19.029Z,0.50
2023-03-14T17:58:47.615Z,0.47
2023-03-14T18:01:18.548Z,0.40
2023-03-14T18:03:48.125Z,0.40
2023-03-14T18:06:18.666Z,0.60
2023-03-14T18:08:47.603Z,0.33
2023-03-14T18:11:18.448Z,0.50
2023-03-14T18:13:47.195Z,0.40
2023-03-14T18:16:16.421Z,0.53
2023-03-14T18:18:48.453Z,0.50
2023-03-14T18:21:21.929Z,0.50
2023-03-14T18:23:50.534Z,0.50
2023-03-14T18:26:21.427Z,0.47
2023-03-14T18:28:49.932Z,0.50
2023-03-14T18:31:22.887Z,0.40
2023-03-14T18:33:52.693Z,0.43
2023-03-14T18:36:21.467Z,0.80
2023-03-14T18:38:56.483Z,0.60
2023-03-14T18:41:27.318Z,0.60
2023-03-14T18:43:56.722Z,0.83
2023-03-14T18:46:25.548Z,0.50
2023-03-14T18:48:57.478Z,0.40
2023-03-14T18:51:28.973Z,0.30
2023-03-14T18:54:08.938Z,0.50
2023-03-14T18:56:41.438Z,0.40
2023-03-14T18:59:10.560Z,0.40
2023-03-14T19:01:39.212Z,0.40
2023-03-14T19:04:10.843Z,0.50
2023-03-14T19:06:39.793Z,0.40
2023-03-14T19:09:09.332Z,0.40
2023-03-14T19:11:39.326Z,0.40
2023-03-14T19:14:08.339Z,0.40
2023-03-14T19:16:37.130Z,0.70
2023-03-14T19:19:05.925Z,0.73
2023-03-14T19:21:36.553Z,0.30
2023-03-14T19:24:06.441Z,1.90
2023-03-14T19:26:36.023Z,1.17
2023-03-14T19:29:06.329Z,0.93
2023-03-14T19:31:35.351Z,0.40
2023-03-14T19:34:04.426Z,0.83
2023-03-14T19:36:34.765Z,0.37
2023-03-14T19:39:04.560Z,0.40
2023-03-14T19:41:34.411Z,1.03
2023-03-14T19:44:03.025Z,0.60
2023-03-14T19:46:34.830Z,0.47
2023-03-14T19:49:03.584Z,0.77
2023-03-14T19:51:35.057Z,1.00
2023-03-14T19:54:04.984Z,0.40
2023-03-14T19:56:33.947Z,0.57
2023-03-14T19:59:04.156Z,0.30
2023-03-14T20:01:35.112Z,0.30
2023-03-14T20:04:05.255Z,0.30
2023-03-14T20:06:34.442Z,0.50
2023-03-14T20:09:05.652Z,0.40
2023-03-14T20:11:35.380Z,0.47
2023-03-14T20:14:03.963Z,0.60
2023-03-14T20:16:36.008Z,0.50
2023-03-14T20:19:07.055Z,0.50
2023-03-14T20:21:35.950Z,0.30
2023-03-14T20:24:05.255Z,0.97
2023-03-14T20:26:34.534Z,1.37
2023-03-14T20:29:03.158Z,0.97
2023-03-14T20:31:34.101Z,0.77
2023-03-14T20:34:02.640Z,0.50
2023-03-14T20:36:31.379Z,0.50
2023-03-14T20:38:59.871Z,0.60
2023-03-14T20:41:28.475Z,0.90
2023-03-14T20:43:56.982Z,0.43
2023-03-14T20:46:25.547Z,0.50
2023-03-14T20:48:55.493Z,0.43
2023-03-14T20:51:24.917Z,0.60
2023-03-14T20:53:53.535Z,0.60
2023-03-14T20:56:22.135Z,0.70
2023-03-14T20:58:50.817Z,0.60
2023-03-14T21:01:19.463Z,0.40
2023-03-14T21:03:48.469Z,0.83
2023-03-14T21:06:18.444Z,0.40
2023-03-14T21:08:47.014Z,0.50
2023-03-14T21:11:15.610Z,0.50
2023-03-14T21:13:44.240Z,0.77
2023-03-14T21:16:12.867Z,1.17
2023-03-14T21:18:41.662Z,0.50
2023-03-14T21:21:10.413Z,1.27
2023-03-14T21:23:41.160Z,0.43
2023-03-14T21:26:09.857Z,0.50
2023-03-14T21:28:38.574Z,0.53
2023-03-14T21:31:09.457Z,0.40
2023-03-14T21:33:38.441Z,0.53
2023-03-14T21:36:08.383Z,0.60
2023-03-14T21:38:36.988Z,0.60
2023-03-14T21:41:08.640Z,0.83
2023-03-14T21:43:37.208Z,0.50
2023-03-14T21:46:06.036Z,0.90
2023-03-14T21:48:34.715Z,0.70
2023-03-14T21:51:05.982Z,2.23
2023-03-14T21:53:35.506Z,0.40
2023-03-14T21:56:07.065Z,0.67
2023-03-14T21:58:35.889Z,0.77
2023-03-14T22:01:07.003Z,0.70
2023-03-14T22:03:36.319Z,0.63
2023-03-14T22:06:05.342Z,0.60
2023-03-14T22:08:33.937Z,0.60
2023-03-14T22:11:02.483Z,0.30
2023-03-14T22:13:32.393Z,0.40
2023-03-14T22:16:00.992Z,0.60
2023-03-14T22:18:30.423Z,0.40
2023-03-14T22:20:59.113Z,0.40
2023-03-14T22:23:29.499Z,0.30
2023-03-14T22:25:58.099Z,0.53
2023-03-14T22:28:26.760Z,0.43
2023-03-14T22:30:57.003Z,0.50
2023-03-14T22:33:25.915Z,0.63
2023-03-14T22:35:55.128Z,0.40
2023-03-14T22:38:23.941Z,0.57
2023-03-14T22:40:52.496Z,0.40
2023-03-14T22:43:21.601Z,0.40
2023-03-14T22:46:01.674Z,0.40
2023-03-14T22:48:31.078Z,0.40
2023-03-14T22:50:59.820Z,0.40
2023-03-14T22:53:28.430Z,0.40
2023-03-14T22:56:01.073Z,0.60
2023-03-14T22:58:30.492Z,0.40
2023-03-14T23:01:00.369Z,0.40
2023-03-14T23:03:30.975Z,0.50
2023-03-14T23:05:59.650Z,0.47
2023-03-14T23:08:28.240Z,0.60
2023-03-14T23:11:02.448Z,0.50
2023-03-14T23:13:32.148Z,0.50
2023-03-14T23:16:01.329Z,0.50
2023-03-14T23:18:31.594Z,0.47
2023-03-14T23:21:15.095Z,0.40
2023-03-14T23:23:46.532Z,0.50
2023-03-14T23:26:17.277Z,0.40
2023-03-14T23:28:45.991Z,0.60
2023-03-14T23:31:14.860Z,5.60
2023-03-14T23:33:45.709Z,0.80
2023-03-14T23:36:18.231Z,2.20
2023-03-14T23:38:48.139Z,0.40
2023-03-14T23:41:16.869Z,0.50
2023-03-14T23:43:46.376Z,0.40
2023-03-14T23:46:15.432Z,0.50
2023-03-14T23:48:47.413Z,0.40
2023-03-14T23:51:16.908Z,0.40
2023-03-14T23:53:45.823Z,0.40
2023-03-14T23:56:15.706Z,0.50
2023-03-14T23:58:44.509Z,0.50
